JTC Airport (Springerville Muni) Information

FAA: JTC - ICAO: KJTC

JTC Airport Location

State Arizona
County Apache
City Springerville
JTC Airport is 1 mile west-southwest of Springerville, AZ.
Latitude 34-07-45.9000N
Longitude 109-18-39.1000W
Elevation 7,055ft

KJTC Airport METARs

METAR KJTC 301815Z AUTO 36012KT 10SM CLR 11/M05 A3033 RMK AO2
Altimeter 30.33"
Temperature 11.0°C (51.8°F)
Wind 360° at 12KT
Clouds Skies are clear.
Visibility 10.0mi
Time observed: 2021-11-30T18:15:00Z

JTC Airport Details

Status Operational
Activation N/A
Ownership Public
Usage Public
Chart PHOENIX
ATC on-site No
Beacon schedule sunset-sunrise
Beacon color clear green

JTC Airport Contacts

Owner TOWN OF SPRINGERVILLE
Owner address 418 EAST MAIN STREET, SPRINGERVILLE, AZ 85938
Owner phone 928-333-2656
Manager LOUIS BOISVERT
Manager address 1834 S SLEEPY HALLOW AVE, TUSCON, AZ 85710
Manager phone 602-885-5770

JTC Airport (Springerville Muni) Radio Frequencies

JTC (Airport) Radio Frequencies

UNICOM 122.8
Common traffic advisory frequency (CTAF) 122.8